Bullhead City, AZ (86426)

7:08 AM MST on February 07, 2016 (GMT -0700)
Moon Ridge | | Change Station
CLOSE
Current Station
Personal Weather Station
Location: Fort Mohave, AZ
Elevation: 659 ft
Nearby Weather Stations
Active Advisory: Lake Wind Advisory

Elev 659 ft 35.00 °N, 114.57 °W | Updated 42 seconds ago

Clear
Clear
55.9 °F
Feels Like 55.9 °F
N
14.0
Wind Variable Wind from NNE
Gusts 18.0 mph

Today
High -- | Low -- °F
--% Chance of Precip.
Yesterday
High -- | Low -- °F
Precip. -- in
Pressure 30.26 in
Visibility 10.0 miles
Clouds Clear
Dew Point 28 °F
Humidity 34%
Rainfall 0.00 in
Snow Depth Not available.
7:32 AM 6:12 PM
Waning Crescent, 1% visible
METAR KIFP 071355Z AUTO 02023G29KT 10SM CLR 13/M03 A3026 RMK AO2
Pressure 30.26 in
Visibility 10.0 miles
Clouds Clear
Dew Point 28 °F
Humidity 34%
Rainfall 0.00 in
Snow Depth Not available.
7:32 AM 6:12 PM
Waning Crescent, 1% visible
METAR KIFP 071355Z AUTO 02023G29KT 10SM CLR 13/M03 A3026 RMK AO2

10-Day Weather Forecast

Almanac

Astronomy

Feb. 07, 2016 Rise Set
Actual Time
Civil Twilight
Nautical Twilight
Astronomical Twilight
Moon
Length of Visible Light
Length of Day
Tomorrow will be .
, % of the Moon is Illuminated

Today's Extremes

State Highs State Lows

Community

WunderPhotos

Upload Photos

1,891,204 photos uploaded!

WunderBlog® & News

Nearby

Air Quality

  Air Quality AQ Index Pollutant
Not available.

Snow Depth

Station Depth Elevation

Earthquake Activity

City Distance Mag. Time & Date
Minimum magnitude displayed is 2.5.

Coastal Water Temperatures

Place Temperature

Stations

Nearby Weather Stations

Station Location Temp. Windchill Dew Point Humidity Wind Precip. Elev Updated Type
                   

Watches & Warnings

Lake Wind Advisory
Issued: 3:43 AM MST Feb. 7, 2016 – National Weather Service

... Lake Wind Advisory remains in effect until 10 PM PST /11 PM
MST/ Monday...

* timing... through Monday evening. Winds will be weaker during the
nighttime hours.

* Winds... winds of 25 to 30 mph with gusts to 35 mph are
expected. Wind gusts may locally exceed 40 mph.

* Impacts... strong winds will make for dangerous boating
conditions and choppy water on area lakes and rivers. Small
boats may capsize.

Precautionary/preparedness actions...

A lake Wind Advisory means that winds are expected to cause rough
chop on area lakes. Small boats will be especially prone to
capsizing.



Cms